sensor_id;sensor_type;location;lat;lon;timestamp;pressure;altitude;pressure_sealevel;temperature;humidity
49455;BME280;49011;64.658;21.218;2022-09-24T00:01:59;101413.43;;;10.73;85.63
49455;BME280;49011;64.658;21.218;2022-09-24T00:04:26;101420.33;;;10.80;84.87
49455;BME280;49011;64.658;21.218;2022-09-24T00:06:54;101417.99;;;11.35;83.13
49455;BME280;49011;64.658;21.218;2022-09-24T00:09:22;101425.37;;;10.79;85.03
49455;BME280;49011;64.658;21.218;2022-09-24T00:11:50;101425.86;;;10.82;84.08
49455;BME280;49011;64.658;21.218;2022-09-24T00:14:18;101427.53;;;11.20;83.21
49455;BME280;49011;64.658;21.218;2022-09-24T00:16:46;101429.41;;;11.49;81.96
49455;BME280;49011;64.658;21.218;2022-09-24T00:19:14;101430.17;;;10.49;84.75
49455;BME280;49011;64.658;21.218;2022-09-24T00:21:42;101427.22;;;11.01;84.11
49455;BME280;49011;64.658;21.218;2022-09-24T00:24:14;101425.18;;;11.31;83.18
49455;BME280;49011;64.658;21.218;2022-09-24T00:26:42;101425.09;;;10.45;85.75
49455;BME280;49011;64.658;21.218;2022-09-24T00:29:12;101421.77;;;11.04;84.63
49455;BME280;49011;64.658;21.218;2022-09-24T00:31:40;101420.18;;;11.59;81.94
49455;BME280;49011;64.658;21.218;2022-09-24T00:34:08;101420.84;;;11.43;82.29
49455;BME280;49011;64.658;21.218;2022-09-24T00:36:37;101418.79;;;11.47;82.12
49455;BME280;49011;64.658;21.218;2022-09-24T00:39:05;101422.51;;;11.10;84.39
49455;BME280;49011;64.658;21.218;2022-09-24T00:41:35;101421.81;;;10.80;85.20
49455;BME280;49011;64.658;21.218;2022-09-24T00:44:46;101422.93;;;10.97;84.52
49455;BME280;49011;64.658;21.218;2022-09-24T00:47:23;101423.40;;;10.86;84.19
49455;BME280;49011;64.658;21.218;2022-09-24T00:49:55;101420.33;;;10.87;84.62
49455;BME280;49011;64.658;21.218;2022-09-24T00:52:25;101419.65;;;10.53;86.61
49455;BME280;49011;64.658;21.218;2022-09-24T00:54:53;101419.17;;;10.15;87.03
49455;BME280;49011;64.658;21.218;2022-09-24T00:57:21;101417.68;;;10.61;85.86
49455;BME280;49011;64.658;21.218;2022-09-24T00:59:50;101419.76;;;10.65;86.02
49455;BME280;49011;64.658;21.218;2022-09-24T01:02:17;101415.67;;;10.89;84.94
49455;BME280;49011;64.658;21.218;2022-09-24T01:04:45;101419.31;;;10.85;85.39
49455;BME280;49011;64.658;21.218;2022-09-24T01:07:13;101418.03;;;10.80;85.33
49455;BME280;49011;64.658;21.218;2022-09-24T01:09:41;101421.98;;;11.14;83.84
49455;BME280;49011;64.658;21.218;2022-09-24T01:12:15;101421.02;;;10.86;85.03
49455;BME280;49011;64.658;21.218;2022-09-24T01:14:56;101419.61;;;10.82;84.45
49455;BME280;49011;64.658;21.218;2022-09-24T01:17:33;101419.96;;;11.06;84.10
49455;BME280;49011;64.658;21.218;2022-09-24T01:20:35;101420.73;;;11.19;82.80
49455;BME280;49011;64.658;21.218;2022-09-24T01:23:19;101420.30;;;11.47;83.41
49455;BME280;49011;64.658;21.218;2022-09-24T01:26:02;101419.62;;;11.04;84.28
49455;BME280;49011;64.658;21.218;2022-09-24T01:28:42;101415.05;;;10.92;84.48
49455;BME280;49011;64.658;21.218;2022-09-24T01:31:16;101414.54;;;10.82;85.64
49455;BME280;49011;64.658;21.218;2022-09-24T01:33:49;101414.45;;;10.38;85.58
49455;BME280;49011;64.658;21.218;2022-09-24T01:36:21;101414.26;;;10.66;85.37
49455;BME280;49011;64.658;21.218;2022-09-24T01:38:50;101415.53;;;10.78;85.83
49455;BME280;49011;64.658;21.218;2022-09-24T01:41:20;101411.81;;;10.68;85.65
49455;BME280;49011;64.658;21.218;2022-09-24T01:43:48;101409.10;;;10.92;84.96
49455;BME280;49011;64.658;21.218;2022-09-24T01:46:17;101409.09;;;11.18;85.02
49455;BME280;49011;64.658;21.218;2022-09-24T01:48:46;101406.14;;;10.91;85.79
49455;BME280;49011;64.658;21.218;2022-09-24T01:51:19;101409.65;;;11.10;84.91
49455;BME280;49011;64.658;21.218;2022-09-24T01:53:52;101409.36;;;10.85;86.17
49455;BME280;49011;64.658;21.218;2022-09-24T01:56:24;101407.66;;;10.69;86.14
49455;BME280;49011;64.658;21.218;2022-09-24T01:58:59;101413.76;;;10.51;88.22
49455;BME280;49011;64.658;21.218;2022-09-24T02:01:32;101411.08;;;10.94;86.60
49455;BME280;49011;64.658;21.218;2022-09-24T02:04:05;101414.58;;;10.50;87.56
49455;BME280;49011;64.658;21.218;2022-09-24T02:06:39;101411.32;;;10.47;89.36
49455;BME280;49011;64.658;21.218;2022-09-24T02:09:29;101413.80;;;11.04;86.94
49455;BME280;49011;64.658;21.218;2022-09-24T02:11:59;101417.56;;;10.31;88.18
49455;BME280;49011;64.658;21.218;2022-09-24T02:14:31;101414.18;;;11.10;86.45
49455;BME280;49011;64.658;21.218;2022-09-24T02:17:04;101414.25;;;10.43;89.63
49455;BME280;49011;64.658;21.218;2022-09-24T02:19:35;101412.64;;;10.97;87.17
49455;BME280;49011;64.658;21.218;2022-09-24T02:22:05;101409.34;;;10.58;87.35
49455;BME280;49011;64.658;21.218;2022-09-24T02:24:39;101410.11;;;10.82;88.42
49455;BME280;49011;64.658;21.218;2022-09-24T02:27:10;101410.88;;;11.19;85.46
49455;BME280;49011;64.658;21.218;2022-09-24T02:29:38;101405.57;;;11.00;86.41
49455;BME280;49011;64.658;21.218;2022-09-24T02:32:07;101407.52;;;10.70;86.66
49455;BME280;49011;64.658;21.218;2022-09-24T02:34:40;101408.13;;;10.92;86.72
49455;BME280;49011;64.658;21.218;2022-09-24T02:37:10;101402.59;;;11.01;86.86
49455;BME280;49011;64.658;21.218;2022-09-24T02:39:38;101402.17;;;11.19;86.28
49455;BME280;49011;64.658;21.218;2022-09-24T02:42:08;101403.03;;;10.81;88.55
49455;BME280;49011;64.658;21.218;2022-09-24T02:44:36;101403.10;;;10.81;87.21
49455;BME280;49011;64.658;21.218;2022-09-24T02:47:05;101400.13;;;10.94;88.22
49455;BME280;49011;64.658;21.218;2022-09-24T02:49:33;101406.04;;;10.95;87.77
49455;BME280;49011;64.658;21.218;2022-09-24T02:52:00;101406.10;;;10.54;88.12
49455;BME280;49011;64.658;21.218;2022-09-24T02:54:28;101411.60;;;10.63;89.15
49455;BME280;49011;64.658;21.218;2022-09-24T02:56:56;101407.55;;;11.01;88.49
49455;BME280;49011;64.658;21.218;2022-09-24T02:59:23;101410.16;;;10.95;86.54
49455;BME280;49011;64.658;21.218;2022-09-24T03:01:51;101413.08;;;10.88;88.98
49455;BME280;49011;64.658;21.218;2022-09-24T03:04:18;101415.29;;;11.23;85.52
49455;BME280;49011;64.658;21.218;2022-09-24T03:06:45;101415.68;;;10.75;87.65
49455;BME280;49011;64.658;21.218;2022-09-24T03:09:13;101413.79;;;10.90;87.26
49455;BME280;49011;64.658;21.218;2022-09-24T03:11:40;101415.85;;;10.82;87.47
49455;BME280;49011;64.658;21.218;2022-09-24T03:14:08;101414.42;;;10.85;88.41
49455;BME280;49011;64.658;21.218;2022-09-24T03:16:35;101412.92;;;11.24;87.16
49455;BME280;49011;64.658;21.218;2022-09-24T03:19:02;101413.71;;;11.18;88.49
49455;BME280;49011;64.658;21.218;2022-09-24T03:21:30;101416.24;;;10.93;88.08
49455;BME280;49011;64.658;21.218;2022-09-24T03:23:57;101413.23;;;10.96;89.15
49455;BME280;49011;64.658;21.218;2022-09-24T03:26:25;101416.86;;;11.32;85.95
49455;BME280;49011;64.658;21.218;2022-09-24T03:28:52;101415.37;;;11.32;86.43
49455;BME280;49011;64.658;21.218;2022-09-24T03:31:19;101414.92;;;11.25;85.54
49455;BME280;49011;64.658;21.218;2022-09-24T03:33:48;101415.74;;;11.19;86.04
49455;BME280;49011;64.658;21.218;2022-09-24T03:36:18;101413.88;;;11.82;84.68
49455;BME280;49011;64.658;21.218;2022-09-24T03:38:48;101412.10;;;10.75;87.24
49455;BME280;49011;64.658;21.218;2022-09-24T03:41:16;101413.56;;;11.27;87.12
49455;BME280;49011;64.658;21.218;2022-09-24T03:43:44;101412.31;;;10.81;87.53
49455;BME280;49011;64.658;21.218;2022-09-24T03:46:12;101416.13;;;10.88;87.51
49455;BME280;49011;64.658;21.218;2022-09-24T03:48:40;101421.10;;;10.86;86.81
49455;BME280;49011;64.658;21.218;2022-09-24T03:51:12;101420.65;;;10.64;86.11
49455;BME280;49011;64.658;21.218;2022-09-24T03:53:41;101426.26;;;10.57;87.23
49455;BME280;49011;64.658;21.218;2022-09-24T03:56:09;101425.34;;;10.75;87.03
49455;BME280;49011;64.658;21.218;2022-09-24T03:58:37;101426.57;;;10.56;88.01
49455;BME280;49011;64.658;21.218;2022-09-24T04:01:05;101427.45;;;11.03;86.85
49455;BME280;49011;64.658;21.218;2022-09-24T04:03:33;101432.01;;;11.38;85.91
49455;BME280;49011;64.658;21.218;2022-09-24T04:06:00;101428.56;;;10.76;86.60
49455;BME280;49011;64.658;21.218;2022-09-24T04:08:28;101429.03;;;11.18;86.38
49455;BME280;49011;64.658;21.218;2022-09-24T04:10:55;101430.02;;;11.33;85.50
49455;BME280;49011;64.658;21.218;2022-09-24T04:13:22;101431.69;;;10.85;87.21
49455;BME280;49011;64.658;21.218;2022-09-24T04:15:50;101426.66;;;11.11;86.28
49455;BME280;49011;64.658;21.218;2022-09-24T04:18:18;101428.27;;;11.34;86.45
49455;BME280;49011;64.658;21.218;2022-09-24T04:20:45;101428.41;;;11.94;84.14
49455;BME280;49011;64.658;21.218;2022-09-24T04:23:13;101433.28;;;11.33;85.19
49455;BME280;49011;64.658;21.218;2022-09-24T04:25:41;101435.32;;;11.04;86.76
49455;BME280;49011;64.658;21.218;2022-09-24T04:28:09;101435.86;;;10.99;85.98
49455;BME280;49011;64.658;21.218;2022-09-24T04:30:37;101437.87;;;10.83;86.45
49455;BME280;49011;64.658;21.218;2022-09-24T04:33:05;101440.85;;;11.13;87.07
49455;BME280;49011;64.658;21.218;2022-09-24T04:35:34;101443.40;;;10.89;87.13
49455;BME280;49011;64.658;21.218;2022-09-24T04:38:02;101443.47;;;11.30;84.49
49455;BME280;49011;64.658;21.218;2022-09-24T04:40:30;101446.49;;;10.61;86.92
49455;BME280;49011;64.658;21.218;2022-09-24T04:42:58;101440.68;;;10.92;87.35
49455;BME280;49011;64.658;21.218;2022-09-24T04:45:25;101442.68;;;10.93;86.63
49455;BME280;49011;64.658;21.218;2022-09-24T04:47:53;101446.10;;;10.80;87.83
49455;BME280;49011;64.658;21.218;2022-09-24T04:50:21;101444.79;;;11.04;87.58
49455;BME280;49011;64.658;21.218;2022-09-24T04:52:48;101443.79;;;10.51;88.81
49455;BME280;49011;64.658;21.218;2022-09-24T04:55:16;101446.14;;;11.03;88.86
49455;BME280;49011;64.658;21.218;2022-09-24T04:57:44;101444.53;;;10.75;88.13
49455;BME280;49011;64.658;21.218;2022-09-24T05:00:15;101442.69;;;11.11;87.81
49455;BME280;49011;64.658;21.218;2022-09-24T05:02:43;101438.78;;;11.09;87.12
49455;BME280;49011;64.658;21.218;2022-09-24T05:05:12;101438.50;;;11.38;87.29
49455;BME280;49011;64.658;21.218;2022-09-24T05:07:40;101441.02;;;10.44;88.54
49455;BME280;49011;64.658;21.218;2022-09-24T05:10:08;101440.69;;;10.62;90.95
49455;BME280;49011;64.658;21.218;2022-09-24T05:12:35;101436.66;;;11.15;89.64
49455;BME280;49011;64.658;21.218;2022-09-24T05:15:03;101434.73;;;10.70;88.87
49455;BME280;49011;64.658;21.218;2022-09-24T05:17:31;101434.24;;;10.76;88.81
49455;BME280;49011;64.658;21.218;2022-09-24T05:20:00;101435.90;;;10.95;87.97
49455;BME280;49011;64.658;21.218;2022-09-24T05:22:27;101438.02;;;11.13;86.97
49455;BME280;49011;64.658;21.218;2022-09-24T05:24:55;101444.30;;;10.72;87.43
49455;BME280;49011;64.658;21.218;2022-09-24T05:27:22;101447.49;;;10.80;88.58
49455;BME280;49011;64.658;21.218;2022-09-24T05:29:50;101448.32;;;10.57;90.09
49455;BME280;49011;64.658;21.218;2022-09-24T05:32:18;101449.47;;;10.70;87.86
49455;BME280;49011;64.658;21.218;2022-09-24T05:34:46;101453.33;;;10.44;91.83
49455;BME280;49011;64.658;21.218;2022-09-24T05:37:14;101455.35;;;10.65;90.85
49455;BME280;49011;64.658;21.218;2022-09-24T05:39:42;101456.08;;;10.78;89.06
49455;BME280;49011;64.658;21.218;2022-09-24T05:42:10;101458.43;;;11.05;88.85
49455;BME280;49011;64.658;21.218;2022-09-24T05:44:37;101460.74;;;10.58;91.16
49455;BME280;49011;64.658;21.218;2022-09-24T05:47:05;101455.93;;;11.28;88.47
49455;BME280;49011;64.658;21.218;2022-09-24T05:49:33;101454.97;;;10.88;90.26
49455;BME280;49011;64.658;21.218;2022-09-24T05:52:01;101454.63;;;10.75;90.78
49455;BME280;49011;64.658;21.218;2022-09-24T05:54:29;101457.77;;;10.93;89.85
49455;BME280;49011;64.658;21.218;2022-09-24T05:56:57;101455.20;;;11.10;89.66
49455;BME280;49011;64.658;21.218;2022-09-24T05:59:25;101452.65;;;10.87;89.87
49455;BME280;49011;64.658;21.218;2022-09-24T06:01:53;101452.36;;;10.88;89.19
49455;BME280;49011;64.658;21.218;2022-09-24T06:04:20;101454.14;;;11.24;87.74
49455;BME280;49011;64.658;21.218;2022-09-24T06:06:48;101454.83;;;11.31;89.38
49455;BME280;49011;64.658;21.218;2022-09-24T06:09:15;101458.61;;;11.40;88.82
49455;BME280;49011;64.658;21.218;2022-09-24T06:11:43;101463.71;;;11.50;87.38
49455;BME280;49011;64.658;21.218;2022-09-24T06:14:10;101462.18;;;11.15;88.19
49455;BME280;49011;64.658;21.218;2022-09-24T06:16:38;101465.58;;;11.42;86.58
49455;BME280;49011;64.658;21.218;2022-09-24T06:19:05;101463.31;;;11.15;87.47
49455;BME280;49011;64.658;21.218;2022-09-24T06:21:33;101464.05;;;10.86;87.83
49455;BME280;49011;64.658;21.218;2022-09-24T06:24:01;101465.27;;;11.83;84.68
49455;BME280;49011;64.658;21.218;2022-09-24T06:26:29;101464.65;;;11.67;85.67
49455;BME280;49011;64.658;21.218;2022-09-24T06:28:56;101467.96;;;11.04;87.96
49455;BME280;49011;64.658;21.218;2022-09-24T06:31:24;101464.60;;;11.32;86.17
49455;BME280;49011;64.658;21.218;2022-09-24T06:33:52;101463.53;;;11.87;84.47
49455;BME280;49011;64.658;21.218;2022-09-24T06:36:20;101465.65;;;11.71;84.88
49455;BME280;49011;64.658;21.218;2022-09-24T06:38:50;101464.15;;;11.47;84.85
49455;BME280;49011;64.658;21.218;2022-09-24T06:41:18;101466.54;;;11.54;85.09
49455;BME280;49011;64.658;21.218;2022-09-24T06:43:45;101465.17;;;11.26;87.06
49455;BME280;49011;64.658;21.218;2022-09-24T06:46:13;101461.44;;;11.67;84.71
49455;BME280;49011;64.658;21.218;2022-09-24T06:48:41;101464.97;;;11.75;85.47
49455;BME280;49011;64.658;21.218;2022-09-24T06:51:09;101465.07;;;11.71;85.87
49455;BME280;49011;64.658;21.218;2022-09-24T06:53:36;101469.64;;;11.46;84.05
49455;BME280;49011;64.658;21.218;2022-09-24T06:56:04;101468.59;;;11.49;85.60
49455;BME280;49011;64.658;21.218;2022-09-24T06:58:32;101471.02;;;11.52;86.05
49455;BME280;49011;64.658;21.218;2022-09-24T07:01:01;101469.19;;;11.95;84.89
49455;BME280;49011;64.658;21.218;2022-09-24T07:03:30;101468.95;;;11.97;84.03
49455;BME280;49011;64.658;21.218;2022-09-24T07:06:00;101474.57;;;11.68;85.19
49455;BME280;49011;64.658;21.218;2022-09-24T07:08:28;101472.68;;;11.95;84.15
49455;BME280;49011;64.658;21.218;2022-09-24T07:10:55;101474.14;;;11.52;85.23
49455;BME280;49011;64.658;21.218;2022-09-24T07:13:23;101476.42;;;11.49;85.60
49455;BME280;49011;64.658;21.218;2022-09-24T07:15:51;101474.46;;;12.29;82.98
49455;BME280;49011;64.658;21.218;2022-09-24T07:18:19;101477.69;;;11.75;83.86
49455;BME280;49011;64.658;21.218;2022-09-24T07:20:51;101474.89;;;12.31;82.57
49455;BME280;49011;64.658;21.218;2022-09-24T07:23:19;101481.44;;;11.86;82.17
49455;BME280;49011;64.658;21.218;2022-09-24T07:25:48;101485.10;;;12.14;82.95
49455;BME280;49011;64.658;21.218;2022-09-24T07:28:16;101487.14;;;11.52;83.91
49455;BME280;49011;64.658;21.218;2022-09-24T07:30:44;101488.20;;;11.42;83.94
49455;BME280;49011;64.658;21.218;2022-09-24T07:33:11;101488.33;;;12.52;82.14
49455;BME280;49011;64.658;21.218;2022-09-24T07:35:39;101488.10;;;12.11;83.20
49455;BME280;49011;64.658;21.218;2022-09-24T07:38:09;101492.59;;;11.84;83.57
49455;BME280;49011;64.658;21.218;2022-09-24T07:40:37;101497.61;;;11.59;83.94
49455;BME280;49011;64.658;21.218;2022-09-24T07:43:09;101500.09;;;12.08;82.30
49455;BME280;49011;64.658;21.218;2022-09-24T07:45:37;101500.86;;;11.86;83.64
49455;BME280;49011;64.658;21.218;2022-09-24T07:48:05;101503.68;;;12.75;81.31
49455;BME280;49011;64.658;21.218;2022-09-24T07:50:36;101503.78;;;12.14;83.62
49455;BME280;49011;64.658;21.218;2022-09-24T07:53:04;101501.83;;;12.25;83.42
49455;BME280;49011;64.658;21.218;2022-09-24T07:55:33;101505.95;;;11.54;85.52
49455;BME280;49011;64.658;21.218;2022-09-24T07:58:00;101506.76;;;11.67;85.28
49455;BME280;49011;64.658;21.218;2022-09-24T08:00:27;101507.01;;;12.11;85.76
49455;BME280;49011;64.658;21.218;2022-09-24T08:02:54;101506.97;;;12.25;84.27
49455;BME280;49011;64.658;21.218;2022-09-24T08:05:22;101513.19;;;11.77;83.87
49455;BME280;49011;64.658;21.218;2022-09-24T08:07:51;101514.49;;;12.21;83.30
49455;BME280;49011;64.658;21.218;2022-09-24T08:10:19;101516.98;;;12.08;84.60
49455;BME280;49011;64.658;21.218;2022-09-24T08:12:47;101518.63;;;12.17;83.98
49455;BME280;49011;64.658;21.218;2022-09-24T08:15:15;101518.98;;;12.44;81.17
49455;BME280;49011;64.658;21.218;2022-09-24T08:17:42;101518.10;;;12.09;82.26
49455;BME280;49011;64.658;21.218;2022-09-24T08:20:10;101515.63;;;11.88;82.83
49455;BME280;49011;64.658;21.218;2022-09-24T08:22:37;101520.60;;;11.80;83.37
49455;BME280;49011;64.658;21.218;2022-09-24T08:25:05;101518.21;;;12.08;82.42
49455;BME280;49011;64.658;21.218;2022-09-24T08:27:33;101518.27;;;12.12;81.65
49455;BME280;49011;64.658;21.218;2022-09-24T08:30:00;101516.85;;;11.93;82.91
49455;BME280;49011;64.658;21.218;2022-09-24T08:32:27;101519.93;;;11.62;83.35
49455;BME280;49011;64.658;21.218;2022-09-24T08:34:54;101519.80;;;11.79;83.98
49455;BME280;49011;64.658;21.218;2022-09-24T08:37:22;101521.62;;;12.00;83.78
49455;BME280;49011;64.658;21.218;2022-09-24T08:39:50;101524.38;;;11.77;82.77
49455;BME280;49011;64.658;21.218;2022-09-24T08:42:28;101519.36;;;12.09;83.22
49455;BME280;49011;64.658;21.218;2022-09-24T08:44:59;101521.59;;;11.96;83.41
49455;BME280;49011;64.658;21.218;2022-09-24T08:47:35;101522.11;;;12.15;83.49
49455;BME280;49011;64.658;21.218;2022-09-24T08:50:10;101524.53;;;11.88;83.38
49455;BME280;49011;64.658;21.218;2022-09-24T08:52:48;101527.98;;;11.86;83.71
49455;BME280;49011;64.658;21.218;2022-09-24T08:55:21;101529.92;;;12.21;83.45
49455;BME280;49011;64.658;21.218;2022-09-24T08:57:58;101526.43;;;12.14;84.01
49455;BME280;49011;64.658;21.218;2022-09-24T09:00:30;101528.69;;;12.05;83.74
49455;BME280;49011;64.658;21.218;2022-09-24T09:03:05;101526.15;;;12.28;82.12
49455;BME280;49011;64.658;21.218;2022-09-24T09:05:48;101526.27;;;12.23;82.89
49455;BME280;49011;64.658;21.218;2022-09-24T09:08:23;101524.55;;;11.43;84.11
49455;BME280;49011;64.658;21.218;2022-09-24T09:10:57;101525.92;;;12.25;83.56
49455;BME280;49011;64.658;21.218;2022-09-24T09:13:31;101525.85;;;12.20;83.01
49455;BME280;49011;64.658;21.218;2022-09-24T09:16:05;101527.46;;;11.76;83.40
49455;BME280;49011;64.658;21.218;2022-09-24T09:18:36;101523.91;;;12.39;81.24
49455;BME280;49011;64.658;21.218;2022-09-24T09:21:14;101524.17;;;11.84;83.47
49455;BME280;49011;64.658;21.218;2022-09-24T09:23:47;101522.57;;;11.96;82.61
49455;BME280;49011;64.658;21.218;2022-09-24T09:26:15;101524.01;;;12.49;80.29
49455;BME280;49011;64.658;21.218;2022-09-24T09:28:43;101522.24;;;11.97;83.38
49455;BME280;49011;64.658;21.218;2022-09-24T09:31:25;101523.80;;;12.03;83.32
49455;BME280;49011;64.658;21.218;2022-09-24T09:34:06;101522.29;;;11.92;83.61
49455;BME280;49011;64.658;21.218;2022-09-24T09:36:46;101522.75;;;11.91;83.87
49455;BME280;49011;64.658;21.218;2022-09-24T09:39:29;101524.33;;;12.62;81.55
49455;BME280;49011;64.658;21.218;2022-09-24T09:42:04;101531.42;;;12.28;82.97
49455;BME280;49011;64.658;21.218;2022-09-24T09:44:40;101526.98;;;12.15;82.76
49455;BME280;49011;64.658;21.218;2022-09-24T09:47:18;101529.36;;;12.67;80.14
